createdAt,value
2023-03-21T00:00:42.074Z,97388.40
2023-03-21T00:03:20.989Z,97385.40
2023-03-21T00:05:52.047Z,97382.20
2023-03-21T00:08:20.856Z,97385.40
2023-03-21T00:10:54.748Z,97381.20
2023-03-21T00:13:22.891Z,97385.40
2023-03-21T00:16:06.033Z,97383.40
2023-03-21T00:18:42.473Z,97383.00
2023-03-21T00:24:00.664Z,97376.00
2023-03-21T00:26:28.993Z,97369.80
2023-03-21T00:28:57.081Z,97372.20
2023-03-21T00:31:25.189Z,97373.80
2023-03-21T00:33:53.248Z,97372.00
2023-03-21T00:36:21.796Z,97370.40
2023-03-21T00:38:49.949Z,97372.00
2023-03-21T00:41:31.674Z,97373.40
2023-03-21T00:44:06.337Z,97372.20
2023-03-21T00:46:43.947Z,97372.00
2023-03-21T00:49:15.307Z,97371.20
2023-03-21T00:51:43.838Z,97375.20
2023-03-21T00:54:12.546Z,97374.60
2023-03-21T00:56:45.808Z,97370.60
2023-03-21T00:59:14.032Z,97366.40
2023-03-21T01:01:42.140Z,97365.20
2023-03-21T01:04:14.560Z,97360.40
2023-03-21T01:06:43.211Z,97363.60
2023-03-21T01:09:16.680Z,97362.60
2023-03-21T01:11:45.266Z,97363.00
2023-03-21T01:14:22.645Z,97364.60
2023-03-21T01:16:52.096Z,97364.00
2023-03-21T01:19:27.487Z,97360.60
2023-03-21T01:21:59.534Z,97361.80
2023-03-21T01:24:27.705Z,97357.20
2023-03-21T01:26:56.321Z,97353.20
2023-03-21T01:29:24.404Z,97347.80
2023-03-21T01:31:52.521Z,97344.60
2023-03-21T01:34:20.761Z,97342.60
2023-03-21T01:36:48.823Z,97339.80
2023-03-21T01:39:20.242Z,97338.20
2023-03-21T01:41:50.306Z,97341.00
2023-03-21T01:44:23.898Z,97336.20
2023-03-21T01:47:09.250Z,97334.20
2023-03-21T01:49:52.762Z,97331.20
2023-03-21T01:52:41.928Z,97331.40
2023-03-21T01:55:19.780Z,97330.40
2023-03-21T01:58:11.272Z,97331.60
2023-03-21T02:00:47.419Z,97326.60
2023-03-21T02:03:35.068Z,97326.80
2023-03-21T02:06:52.786Z,97326.40
2023-03-21T02:09:32.596Z,97324.40
2023-03-21T02:12:01.105Z,97320.20
2023-03-21T02:14:31.892Z,97316.80
2023-03-21T02:17:05.725Z,97323.60
2023-03-21T02:19:52.737Z,97323.20
2023-03-21T02:22:32.638Z,97323.00
2023-03-21T02:25:22.108Z,97326.00
2023-03-21T02:27:57.343Z,97323.00
2023-03-21T02:30:51.979Z,97321.00
2023-03-21T02:33:38.307Z,97318.20
2023-03-21T02:36:18.612Z,97320.40
2023-03-21T02:39:14.797Z,97325.20
2023-03-21T02:41:49.051Z,97325.60
2023-03-21T02:44:23.788Z,97321.80
2023-03-21T02:47:04.986Z,97324.80
2023-03-21T02:49:45.512Z,97324.40
2023-03-21T02:52:31.769Z,97324.20
2023-03-21T02:55:24.855Z,97320.20
2023-03-21T02:58:11.773Z,97324.80
2023-03-21T03:00:43.437Z,97326.80
2023-03-21T03:03:18.112Z,97329.40
2023-03-21T03:05:55.971Z,97327.80
2023-03-21T03:08:50.139Z,97323.00
2023-03-21T03:11:35.876Z,97320.80
2023-03-21T03:14:35.901Z,97326.60
2023-03-21T03:17:10.598Z,97327.80
2023-03-21T03:20:16.559Z,97322.00
2023-03-21T03:23:07.506Z,97316.20
2023-03-21T03:26:16.354Z,97322.20
2023-03-21T03:28:50.916Z,97318.60
2023-03-21T03:31:27.005Z,97320.80
2023-03-21T03:34:02.360Z,97322.20
2023-03-21T03:36:34.311Z,97319.00
2023-03-21T03:39:09.075Z,97318.00
2023-03-21T03:42:05.929Z,97318.40
2023-03-21T03:44:33.896Z,97314.40
2023-03-21T03:47:26.229Z,97313.20
2023-03-21T03:50:05.929Z,97314.00
2023-03-21T03:52:40.040Z,97314.60
2023-03-21T03:55:12.583Z,97319.00
2023-03-21T03:57:41.928Z,97317.80
2023-03-21T04:00:13.339Z,97318.40
2023-03-21T04:02:49.272Z,97314.60
2023-03-21T04:05:21.486Z,97312.80
2023-03-21T04:07:52.598Z,97310.40
2023-03-21T04:10:26.811Z,97313.00
2023-03-21T04:12:55.146Z,97313.00
2023-03-21T04:15:31.359Z,97311.20
2023-03-21T04:18:04.909Z,97314.40
2023-03-21T04:20:37.204Z,97317.80
2023-03-21T04:23:11.505Z,97319.60
2023-03-21T04:25:44.767Z,97322.80
2023-03-21T04:28:16.147Z,97317.60
2023-03-21T04:31:05.144Z,97316.00
2023-03-21T04:33:44.284Z,97316.60
2023-03-21T04:36:24.946Z,97321.40
2023-03-21T04:38:53.790Z,97317.80
2023-03-21T04:41:21.964Z,97323.60
2023-03-21T04:43:52.325Z,97319.40
2023-03-21T04:46:20.806Z,97323.00
2023-03-21T04:48:50.739Z,97325.00
2023-03-21T04:51:18.788Z,97325.60
2023-03-21T04:53:49.363Z,97331.00
2023-03-21T04:56:17.657Z,97325.00
2023-03-21T04:58:45.717Z,97326.80
2023-03-21T05:01:20.199Z,97329.60
2023-03-21T05:03:49.018Z,97328.20
2023-03-21T05:06:17.123Z,97329.20
2023-03-21T05:08:45.266Z,97331.80
2023-03-21T05:11:13.540Z,97333.40
2023-03-21T05:13:41.716Z,97335.40
2023-03-21T05:16:10.020Z,97328.60
2023-03-21T05:18:38.916Z,97335.00
2023-03-21T05:21:18.183Z,97341.00
2023-03-21T05:23:56.776Z,97342.60
2023-03-21T05:26:25.028Z,97340.80
2023-03-21T05:29:07.778Z,97347.80
2023-03-21T05:31:36.566Z,97344.00
2023-03-21T05:34:07.997Z,97343.40
2023-03-21T05:36:36.311Z,97344.80
2023-03-21T05:39:06.093Z,97342.60
2023-03-21T05:41:35.895Z,97341.40
2023-03-21T05:44:05.084Z,97346.20
2023-03-21T05:46:33.165Z,97341.60
2023-03-21T05:49:01.854Z,97350.00
2023-03-21T05:51:29.962Z,97347.40
2023-03-21T05:53:58.099Z,97344.00
2023-03-21T05:56:26.693Z,97352.60
2023-03-21T05:59:02.027Z,97346.00
2023-03-21T06:01:31.061Z,97351.20
2023-03-21T06:04:09.709Z,97351.40
2023-03-21T06:06:37.879Z,97350.80
2023-03-21T06:09:06.791Z,97352.80
2023-03-21T06:11:36.523Z,97352.20
2023-03-21T06:14:24.056Z,97351.80
2023-03-21T06:17:15.945Z,97349.60
2023-03-21T06:19:49.965Z,97346.20
2023-03-21T06:22:23.459Z,97349.00
2023-03-21T06:24:51.492Z,97354.00
2023-03-21T06:27:19.592Z,97351.20
2023-03-21T06:29:53.559Z,97351.20
2023-03-21T06:32:21.930Z,97348.40
2023-03-21T06:34:53.068Z,97347.60
2023-03-21T06:37:21.200Z,97349.20
2023-03-21T06:39:49.283Z,97351.80
2023-03-21T06:42:17.339Z,97349.40
2023-03-21T06:44:46.139Z,97349.80
2023-03-21T06:47:15.813Z,97345.80
2023-03-21T06:49:44.828Z,97349.20
2023-03-21T06:52:14.078Z,97345.40
2023-03-21T06:54:42.417Z,97345.00
2023-03-21T06:57:13.530Z,97343.20
2023-03-21T06:59:42.083Z,97348.60
2023-03-21T07:02:14.543Z,97346.20
2023-03-21T07:04:47.931Z,97352.80
2023-03-21T07:07:20.287Z,97352.20
2023-03-21T07:09:48.559Z,97355.20
2023-03-21T07:12:17.535Z,97357.80
2023-03-21T07:15:04.693Z,97356.80
2023-03-21T07:17:33.249Z,97358.00
2023-03-21T07:20:01.912Z,97355.60
2023-03-21T07:22:29.861Z,97359.80
2023-03-21T07:25:04.821Z,97356.00
2023-03-21T07:27:40.868Z,97358.20
2023-03-21T07:30:10.354Z,97356.40
2023-03-21T07:32:38.524Z,97355.40
2023-03-21T07:35:08.225Z,97356.80
2023-03-21T07:37:38.106Z,97356.60
2023-03-21T07:40:10.655Z,97356.40
2023-03-21T07:42:40.346Z,97352.80
2023-03-21T07:45:09.536Z,97351.80
2023-03-21T07:47:37.715Z,97348.80
2023-03-21T07:50:06.325Z,97346.40
2023-03-21T07:52:34.716Z,97343.60
2023-03-21T07:55:02.658Z,97345.00
2023-03-21T07:57:30.911Z,97342.60
2023-03-21T07:59:59.043Z,97345.80
2023-03-21T08:02:27.487Z,97346.00
2023-03-21T08:04:56.412Z,97346.00
2023-03-21T08:07:24.558Z,97345.60
2023-03-21T08:09:52.664Z,97344.60
2023-03-21T08:12:20.752Z,97338.80
2023-03-21T08:14:48.872Z,97340.80
2023-03-21T08:17:16.889Z,97331.80
2023-03-21T08:19:45.620Z,97329.20
2023-03-21T08:22:13.800Z,97333.60
2023-03-21T08:24:41.929Z,97331.80
2023-03-21T08:27:10.012Z,97326.20
2023-03-21T08:29:40.636Z,97325.40
2023-03-21T08:32:08.880Z,97329.40
2023-03-21T08:34:37.307Z,97322.20
2023-03-21T08:37:05.522Z,97325.80
2023-03-21T08:39:33.544Z,97325.80
2023-03-21T08:42:01.553Z,97325.80
2023-03-21T08:44:29.703Z,97324.80
2023-03-21T08:46:57.725Z,97326.60
2023-03-21T08:49:27.106Z,97327.20
2023-03-21T08:51:57.980Z,97327.20
2023-03-21T08:54:26.125Z,97323.60
2023-03-21T08:56:54.292Z,97320.80
2023-03-21T08:59:22.260Z,97322.80
2023-03-21T09:01:51.700Z,97320.80
2023-03-21T09:04:25.927Z,97323.60
2023-03-21T09:06:56.331Z,97325.60
2023-03-21T09:09:24.460Z,97326.80
2023-03-21T09:11:52.692Z,97325.40
2023-03-21T09:14:23.863Z,97319.80
2023-03-21T09:16:56.353Z,97323.80
2023-03-21T09:19:24.411Z,97312.60
2023-03-21T09:21:53.936Z,97316.40
2023-03-21T09:24:22.087Z,97317.00
2023-03-21T09:26:51.779Z,97317.00
2023-03-21T09:29:21.535Z,97316.00
2023-03-21T09:31:49.878Z,97315.80
2023-03-21T09:34:18.132Z,97316.80
2023-03-21T09:36:48.512Z,97316.20
2023-03-21T09:39:19.256Z,97315.20
2023-03-21T09:42:05.367Z,97310.00
2023-03-21T09:44:37.885Z,97316.80
2023-03-21T09:47:21.680Z,97314.00
2023-03-21T09:49:56.642Z,97312.60
2023-03-21T09:52:30.700Z,97312.20
2023-03-21T09:54:59.794Z,97320.00
2023-03-21T09:57:41.515Z,97305.00
2023-03-21T10:00:25.751Z,97310.60
2023-03-21T10:02:57.502Z,97306.60
2023-03-21T10:05:28.220Z,97309.00
2023-03-21T10:08:04.811Z,97312.60
2023-03-21T10:10:54.675Z,97313.40
2023-03-21T10:13:28.316Z,97307.60
2023-03-21T10:16:00.960Z,97311.20
2023-03-21T10:18:30.379Z,97302.80
2023-03-21T10:20:58.454Z,97302.60
2023-03-21T10:23:28.012Z,97301.80
2023-03-21T10:26:01.192Z,97296.00
2023-03-21T10:28:39.411Z,97292.00
2023-03-21T10:31:16.373Z,97298.40
2023-03-21T10:33:46.268Z,97292.60
2023-03-21T10:36:22.804Z,97297.20
2023-03-21T10:39:12.088Z,97293.80
2023-03-21T10:41:40.374Z,97290.60
2023-03-21T10:44:16.765Z,97299.60
2023-03-21T10:46:52.833Z,97290.60
2023-03-21T10:49:21.740Z,97291.40
2023-03-21T10:51:51.076Z,97287.00
2023-03-21T10:54:21.372Z,97286.80
2023-03-21T10:57:08.253Z,97280.80
2023-03-21T10:59:44.364Z,97281.80
2023-03-21T11:02:18.348Z,97275.20
2023-03-21T11:04:47.006Z,97286.20
2023-03-21T11:07:15.287Z,97286.40
2023-03-21T11:09:45.055Z,97289.60
2023-03-21T11:12:15.880Z,97284.60
2023-03-21T11:14:48.375Z,97288.00
2023-03-21T11:17:28.314Z,97284.80
2023-03-21T11:20:01.136Z,97287.20
2023-03-21T11:22:30.533Z,97288.20
2023-03-21T11:25:02.066Z,97283.00
2023-03-21T11:27:30.434Z,97283.40
2023-03-21T11:29:59.985Z,97273.80
2023-03-21T11:32:35.946Z,97275.00
2023-03-21T11:35:16.286Z,97265.40
2023-03-21T11:37:47.720Z,97260.80
2023-03-21T11:40:26.215Z,97251.40
2023-03-21T11:42:59.971Z,97241.40
2023-03-21T11:45:29.578Z,97239.00
2023-03-21T11:47:58.701Z,97235.80
2023-03-21T11:50:47.509Z,97227.40
2023-03-21T11:53:27.215Z,97225.20
2023-03-21T11:56:10.607Z,97219.80
2023-03-21T11:59:04.157Z,97207.60
2023-03-21T12:01:54.889Z,97205.80
2023-03-21T12:04:42.796Z,97206.40
2023-03-21T12:07:21.347Z,97197.20
2023-03-21T12:09:55.449Z,97185.00
2023-03-21T12:12:39.211Z,97190.40
2023-03-21T12:15:13.414Z,97190.40
2023-03-21T12:18:18.965Z,97189.60
2023-03-21T12:21:04.116Z,97184.60
2023-03-21T12:23:43.694Z,97180.60
2023-03-21T12:26:11.639Z,97188.60
2023-03-21T12:28:49.462Z,97191.40
2023-03-21T12:31:21.188Z,97194.40
2023-03-21T12:34:01.542Z,97191.80
2023-03-21T12:36:37.520Z,97193.80
2023-03-21T12:39:44.016Z,97203.80
2023-03-21T12:42:43.150Z,97228.60
2023-03-21T12:45:20.505Z,97222.60
2023-03-21T12:48:00.758Z,97230.60
2023-03-21T12:50:32.974Z,97245.40
2023-03-21T12:53:17.940Z,97263.60
2023-03-21T12:55:46.065Z,97280.00
2023-03-21T12:58:19.058Z,97296.40
2023-03-21T13:00:53.808Z,97298.60
2023-03-21T13:03:46.508Z,97304.80
2023-03-21T13:06:14.998Z,97302.40
2023-03-21T13:08:50.356Z,97298.20
2023-03-21T13:11:22.064Z,97289.40
2023-03-21T13:14:02.178Z,97275.00
2023-03-21T13:16:36.145Z,97286.60
2023-03-21T13:19:21.500Z,97261.40
2023-03-21T13:22:34.096Z,97223.00
2023-03-21T13:25:21.968Z,97225.40
2023-03-21T13:28:04.469Z,97228.60
2023-03-21T13:30:32.686Z,97230.40
2023-03-21T13:33:07.046Z,97225.00
2023-03-21T13:35:38.556Z,97228.20
2023-03-21T13:38:16.427Z,97227.40
2023-03-21T13:40:49.099Z,97226.00
2023-03-21T13:43:38.985Z,97225.80
2023-03-21T13:46:08.290Z,97225.40
2023-03-21T13:48:58.584Z,97215.60
2023-03-21T13:51:36.447Z,97214.60
2023-03-21T13:54:25.475Z,97214.60
2023-03-21T13:56:56.923Z,97220.20
2023-03-21T13:59:41.427Z,97219.20
2023-03-21T14:02:12.778Z,97230.60
2023-03-21T14:04:53.955Z,97230.40
2023-03-21T14:07:30.533Z,97228.60
2023-03-21T14:10:20.561Z,97219.20
2023-03-21T14:12:48.607Z,97214.80
2023-03-21T14:15:43.747Z,97212.40
2023-03-21T14:18:28.264Z,97208.40
2023-03-21T14:21:05.061Z,97201.80
2023-03-21T14:23:33.442Z,97192.40
2023-03-21T14:26:01.600Z,97189.20
2023-03-21T14:28:30.359Z,97186.60
2023-03-21T14:31:00.295Z,97182.00
2023-03-21T14:33:33.315Z,97176.20
2023-03-21T14:36:11.782Z,97171.60
2023-03-21T14:38:40.341Z,97165.00
2023-03-21T14:41:27.962Z,97162.80
2023-03-21T14:44:14.452Z,97164.40
2023-03-21T14:46:43.355Z,97167.20
2023-03-21T14:49:19.930Z,97167.60
2023-03-21T14:51:48.128Z,97173.80
2023-03-21T14:54:17.843Z,97174.60
2023-03-21T14:56:48.187Z,97179.60
2023-03-21T14:59:17.867Z,97183.60
2023-03-21T15:01:46.343Z,97184.40
2023-03-21T15:04:14.648Z,97184.00
2023-03-21T15:06:53.850Z,97183.00
2023-03-21T15:09:23.871Z,97177.20
2023-03-21T15:11:52.146Z,97179.40
2023-03-21T15:14:26.773Z,97176.20
2023-03-21T15:16:54.847Z,97177.40
2023-03-21T15:19:29.567Z,97179.40
2023-03-21T15:22:01.268Z,97173.60
2023-03-21T15:24:34.584Z,97175.20
2023-03-21T15:27:07.408Z,97180.00
2023-03-21T15:29:37.019Z,97180.20
2023-03-21T15:32:11.793Z,97184.20
2023-03-21T15:34:39.908Z,97187.60
2023-03-21T15:37:09.180Z,97194.00
2023-03-21T15:39:37.193Z,97194.00
2023-03-21T15:42:27.160Z,97195.40
2023-03-21T15:44:58.145Z,97197.40
2023-03-21T15:47:49.704Z,97205.60
2023-03-21T15:50:39.140Z,97198.60
2023-03-21T15:53:14.905Z,97197.00
2023-03-21T15:55:50.036Z,97198.80
2023-03-21T15:58:20.602Z,97194.40
2023-03-21T16:00:55.962Z,97185.00
2023-03-21T16:03:28.750Z,97179.60
2023-03-21T16:06:27.447Z,97180.00
2023-03-21T16:09:04.320Z,97179.20
2023-03-21T16:11:41.620Z,97179.40
2023-03-21T16:14:09.757Z,97181.60
2023-03-21T16:16:37.901Z,97183.60
2023-03-21T16:19:07.345Z,97182.00
2023-03-21T16:21:38.248Z,97176.80
2023-03-21T16:24:06.952Z,97173.40
2023-03-21T16:26:43.630Z,97174.80
2023-03-21T16:29:13.080Z,97176.00
2023-03-21T16:31:41.493Z,97180.20
2023-03-21T16:34:10.778Z,97178.80
2023-03-21T16:36:40.368Z,97184.00
2023-03-21T16:39:27.022Z,97185.40
2023-03-21T16:41:55.113Z,97188.00
2023-03-21T16:44:23.181Z,97182.40
2023-03-21T16:46:51.216Z,97189.00
2023-03-21T16:49:26.885Z,97191.20
2023-03-21T16:51:55.858Z,97191.20
2023-03-21T16:54:23.990Z,97193.40
2023-03-21T16:56:53.654Z,97195.20
2023-03-21T16:59:21.854Z,97196.80
2023-03-21T17:01:49.938Z,97194.00
2023-03-21T17:04:18.307Z,97193.60
2023-03-21T17:06:50.809Z,97199.40
2023-03-21T17:09:21.277Z,97194.20
2023-03-21T17:11:49.623Z,97197.40
2023-03-21T17:14:18.757Z,97203.60
2023-03-21T17:16:47.109Z,97208.40
2023-03-21T17:19:19.903Z,97213.40
2023-03-21T17:21:48.149Z,97214.80
2023-03-21T17:24:16.912Z,97220.20
2023-03-21T17:26:45.397Z,97224.80
2023-03-21T17:29:13.989Z,97226.80
2023-03-21T17:31:42.680Z,97228.00
2023-03-21T17:34:11.187Z,97230.80
2023-03-21T17:36:40.697Z,97232.80
2023-03-21T17:39:12.846Z,97236.80
2023-03-21T17:41:41.404Z,97233.60
2023-03-21T17:44:09.565Z,97234.60
2023-03-21T17:46:37.801Z,97241.00
2023-03-21T17:49:06.246Z,97247.20
2023-03-21T17:51:34.248Z,97259.20
2023-03-21T17:54:02.478Z,97267.20
2023-03-21T17:56:31.288Z,97269.80
2023-03-21T17:59:00.556Z,97272.00
2023-03-21T18:01:30.943Z,97269.60
2023-03-21T18:03:59.564Z,97274.40
2023-03-21T18:06:28.164Z,97275.20
2023-03-21T18:08:56.354Z,97277.80
2023-03-21T18:11:24.720Z,97275.00
2023-03-21T18:14:06.595Z,97276.80
2023-03-21T18:16:38.357Z,97283.20
2023-03-21T18:19:06.508Z,97284.80
2023-03-21T18:21:36.083Z,97282.80
2023-03-21T18:24:04.561Z,97289.80
2023-03-21T18:26:32.577Z,97287.60
2023-03-21T18:29:57.032Z,97286.00
2023-03-21T18:32:04.493Z,97279.80
2023-03-21T18:34:34.361Z,97283.40
2023-03-21T18:37:04.167Z,97284.80
2023-03-21T18:39:33.240Z,97285.60
2023-03-21T18:42:02.597Z,97287.20
2023-03-21T18:44:37.631Z,97294.40
2023-03-21T18:47:07.107Z,97295.80
2023-03-21T18:50:10.599Z,97291.60
2023-03-21T18:52:23.678Z,97295.40
2023-03-21T18:54:53.356Z,97294.40
2023-03-21T18:57:38.721Z,97291.20
2023-03-21T19:00:13.063Z,97289.20
2023-03-21T19:02:46.966Z,97292.40
2023-03-21T19:05:20.331Z,97295.40
2023-03-21T19:07:49.215Z,97295.20
2023-03-21T19:10:20.015Z,97293.80
2023-03-21T19:12:52.550Z,97289.80
2023-03-21T19:15:21.853Z,97293.40
2023-03-21T19:20:43.421Z,97289.80
2023-03-21T19:23:11.796Z,97290.20
2023-03-21T19:25:40.005Z,97286.00
2023-03-21T19:28:08.306Z,97286.40
2023-03-21T19:30:36.784Z,97287.60
2023-03-21T19:33:05.284Z,97287.80
2023-03-21T19:35:37.345Z,97291.00
2023-03-21T19:38:05.586Z,97292.40
2023-03-21T19:40:33.974Z,97292.20
2023-03-21T19:43:29.909Z,97291.20
2023-03-21T19:45:53.468Z,97291.40
2023-03-21T19:48:23.471Z,97288.00
2023-03-21T19:51:24.267Z,97291.20
2023-03-21T19:53:47.045Z,97292.80
2023-03-21T19:56:22.386Z,97290.00
2023-03-21T19:58:52.522Z,97290.60
2023-03-21T20:01:21.229Z,97291.40
2023-03-21T20:03:49.598Z,97291.60
2023-03-21T20:06:22.713Z,97292.40
2023-03-21T20:09:33.947Z,97293.40
2023-03-21T20:11:44.622Z,97288.20
2023-03-21T20:14:16.122Z,97284.00
2023-03-21T20:16:44.554Z,97288.60
2023-03-21T20:19:14.811Z,97291.00
2023-03-21T20:21:55.383Z,97294.60
2023-03-21T20:24:30.889Z,97291.00
2023-03-21T20:27:03.347Z,97293.60
2023-03-21T20:30:07.949Z,97289.20
2023-03-21T20:32:19.864Z,97291.80
2023-03-21T20:34:50.452Z,97290.80
2023-03-21T20:37:19.223Z,97289.80
2023-03-21T20:39:47.182Z,97288.20
2023-03-21T20:42:15.386Z,97292.20
2023-03-21T20:45:00.597Z,97293.40
2023-03-21T20:47:29.015Z,97291.00
2023-03-21T20:49:57.026Z,97287.00
2023-03-21T20:52:57.803Z,97289.20
2023-03-21T20:55:14.416Z,97287.40
2023-03-21T20:57:48.607Z,97287.60
2023-03-21T21:00:17.670Z,97288.40
2023-03-21T21:02:46.578Z,97287.80
2023-03-21T21:05:34.356Z,97289.00
2023-03-21T21:08:05.684Z,97290.00
2023-03-21T21:10:35.057Z,97287.20
2023-03-21T21:13:07.542Z,97287.40
2023-03-21T21:15:35.603Z,97285.00
2023-03-21T21:18:06.604Z,97283.80
2023-03-21T21:20:36.934Z,97286.20
2023-03-21T21:23:05.361Z,97285.00
2023-03-21T21:25:33.624Z,97288.60
2023-03-21T21:28:02.138Z,97284.00
2023-03-21T21:30:31.661Z,97288.00
2023-03-21T21:33:00.968Z,97292.60
2023-03-21T21:35:29.160Z,97288.00
2023-03-21T21:37:57.253Z,97290.20
2023-03-21T21:40:25.631Z,97288.60
2023-03-21T21:42:53.857Z,97284.20
2023-03-21T21:45:22.008Z,97282.80
2023-03-21T21:47:50.056Z,97289.20
2023-03-21T21:50:18.907Z,97286.00
2023-03-21T21:53:26.534Z,97294.00
2023-03-21T21:55:56.722Z,97295.60
2023-03-21T21:58:26.029Z,97296.60
2023-03-21T22:00:54.451Z,97300.00
2023-03-21T22:03:23.343Z,97306.60
2023-03-21T22:05:52.372Z,97305.40
2023-03-21T22:08:20.767Z,97306.00
2023-03-21T22:10:49.015Z,97305.00
2023-03-21T22:13:17.012Z,97300.60
2023-03-21T22:15:46.198Z,97306.00
2023-03-21T22:18:14.288Z,97306.40
2023-03-21T22:20:42.366Z,97305.20
2023-03-21T22:23:10.590Z,97307.00
2023-03-21T22:25:38.876Z,97307.60
2023-03-21T22:28:09.998Z,97305.20
2023-03-21T22:30:38.178Z,97307.80
2023-03-21T22:33:09.809Z,97308.00
2023-03-21T22:35:38.154Z,97310.20
2023-03-21T22:38:06.360Z,97306.20
2023-03-21T22:40:34.750Z,97310.00
2023-03-21T22:43:02.940Z,97308.80
2023-03-21T22:45:30.968Z,97309.00
2023-03-21T22:47:59.964Z,97313.20
2023-03-21T22:50:28.730Z,97317.40
2023-03-21T22:52:56.917Z,97318.80
2023-03-21T22:55:24.899Z,97316.80
2023-03-21T22:57:52.982Z,97315.20
2023-03-21T23:00:20.950Z,97315.20
2023-03-21T23:02:48.959Z,97315.00
2023-03-21T23:05:17.016Z,97314.00
2023-03-21T23:07:45.048Z,97311.20
2023-03-21T23:10:13.089Z,97306.80
2023-03-21T23:12:41.069Z,97312.00
2023-03-21T23:15:09.675Z,97317.80
2023-03-21T23:17:38.043Z,97313.60
2023-03-21T23:20:07.858Z,97313.80
2023-03-21T23:22:36.102Z,97315.00
2023-03-21T23:25:04.448Z,97315.40
2023-03-21T23:27:35.287Z,97311.00
2023-03-21T23:30:05.000Z,97314.80
2023-03-21T23:32:33.181Z,97316.20
2023-03-21T23:35:01.252Z,97323.20
2023-03-21T23:37:30.135Z,97315.60
2023-03-21T23:39:58.193Z,97318.40
2023-03-21T23:42:27.073Z,97319.20
2023-03-21T23:44:56.161Z,97321.40
2023-03-21T23:47:24.139Z,97317.40
2023-03-21T23:49:52.825Z,97322.40
2023-03-21T23:52:21.455Z,97321.80
2023-03-21T23:54:49.510Z,97322.80
2023-03-21T23:57:18.003Z,97321.00
2023-03-21T23:59:47.062Z,97319.80
